^^
Meteo Knjazevac Station Historical Data
Daily Summary for January 2, 2021 Units:  Metric    English   Both
Daily Weekly Monthly Yearly Custom
  High: Low: Average:
Temperature: 23.8 °C 13.2 °C 16.6 °C
Dew Point: 13.6 °C 9.7 °C 11.7 °C
Humidity: 83% 49% 74%
Wind Speed: 16.1km/h 0km/h 5.8km/h
Wind Gust: 32.2km/h - -
Wind- - SSW
Pressure: 1022.9 hPa 1022.2 hPa -
Precipitation: 0 mm    
Historical Graphs
 
 
Tabular Data for January 2, 2021
Time Temperature Dew Point Pressure Wind Wind Speed Wind Gust Humidity Rainfall Rate (Hourly) solar Conditions
00:00 13.5 °C 9.9 °C 1022.6 hPa WSW 1.6 km/h 6.4 km/h 79% 0 mm 0 W/m2
00:10 13.5 °C 9.9 °C 1022.6 hPa WSW 3.2 km/h 4.8 km/h 79% 0 mm 0 W/m2
00:20 13.3 °C 9.7 °C 1022.6 hPa SW 1.6 km/h 6.4 km/h 79% 0 mm 0 W/m2
00:30 13.4 °C 10 °C 1022.6 hPa SSW 1.6 km/h 9.7 km/h 80% 0 mm 0 W/m2
00:40 13.3 °C 9.9 °C 1022.6 hPa NW 3.2 km/h 8 km/h 80% 0 mm 0 W/m2
00:50 13.2 °C 10 °C 1022.6 hPa West 3.2 km/h 8 km/h 81% 0 mm 0 W/m2
01:00 13.2 °C 10 °C 1022.6 hPa West 1.6 km/h 6.4 km/h 81% 0 mm 0 W/m2
01:10 13.3 °C 10.1 °C 1022.6 hPa SSW 3.2 km/h 8 km/h 81% 0 mm 0 W/m2
01:20 13.2 °C 10 °C 1022.6 hPa SW 3.2 km/h 6.4 km/h 81% 0 mm 0 W/m2
01:30 13.2 °C 10 °C 1022.6 hPa West 3.2 km/h 8 km/h 81% 0 mm 0 W/m2
01:40 13.4 °C 10.2 °C 1022.2 hPa SW 3.2 km/h 6.4 km/h 81% 0 mm 0 W/m2
01:50 13.6 °C 10.4 °C 1022.2 hPa WSW 3.2 km/h 6.4 km/h 81% 0 mm 0 W/m2
02:00 13.8 °C 10.6 °C 1022.6 hPa WSW 1.6 km/h 4.8 km/h 81% 0 mm 0 W/m2
02:10 13.8 °C 10.6 °C 1022.6 hPa West 3.2 km/h 6.4 km/h 81% 0 mm 0 W/m2
02:20 13.9 °C 10.7 °C 1022.2 hPa West 1.6 km/h 4.8 km/h 81% 0 mm 0 W/m2
02:30 14.1 °C 10.9 °C 1022.2 hPa Calm   6.4 km/h 81% 0 mm 0 W/m2
02:40 14.2 °C 10.8 °C 1022.2 hPa NNE 3.2 km/h 8 km/h 80% 0 mm 0 W/m2
02:50 14.3 °C 10.9 °C 1022.2 hPa NE 4.8 km/h 8 km/h 80% 0 mm 0 W/m2
03:00 14.4 °C 11 °C 1022.2 hPa Calm   6.4 km/h 80% 0 mm 0 W/m2
03:10 14.3 °C 11.1 °C 1022.2 hPa Calm   4.8 km/h 81% 0 mm 0 W/m2
03:20 14.3 °C 11.1 °C 1022.2 hPa NNE 3.2 km/h 4.8 km/h 81% 0 mm 0 W/m2
03:30 14.4 °C 11.2 °C 1022.2 hPa Calm   3.2 km/h 81% 0 mm 0 W/m2
03:40 14.5 °C 11.3 °C 1022.2 hPa ENE 3.2 km/h 4.8 km/h 81% 0 mm 0 W/m2
03:50 14.5 °C 11.3 °C 1022.2 hPa NNE 3.2 km/h 4.8 km/h 81% 0 mm 0 W/m2
04:00 14.6 °C 11.2 °C 1022.2 hPa Calm   4.8 km/h 80% 0 mm 0 W/m2
04:10 14.6 °C 11.4 °C 1022.2 hPa Calm   3.2 km/h 81% 0 mm 0 W/m2
04:20 14.7 °C 11.4 °C 1022.2 hPa Calm   3.2 km/h 81% 0 mm 0 W/m2
04:30 14.6 °C 11.6 °C 1022.2 hPa North 1.6 km/h 4.8 km/h 82% 0 mm 0 W/m2
04:40 14.5 °C 11.3 °C 1022.2 hPa Calm   9.7 km/h 81% 0 mm 0 W/m2
04:50 14.6 °C 11.4 °C 1022.2 hPa North 3.2 km/h 3.2 km/h 81% 0 mm 0 W/m2
05:00 14.7 °C 11.3 °C 1022.2 hPa WNW 3.2 km/h 14.5 km/h 80% 0 mm 0 W/m2
05:10 14.8 °C 11.4 °C 1022.2 hPa West 1.6 km/h 14.5 km/h 80% 0 mm 0 W/m2
05:20 14.7 °C 11.4 °C 1022.2 hPa Calm   8 km/h 81% 0 mm 0 W/m2
05:30 14.6 °C 11.4 °C 1022.2 hPa Calm   4.8 km/h 81% 0 mm 0 W/m2
05:40 14.6 °C 11.3 °C 1022.6 hPa Calm   3.2 km/h 81% 0 mm 0 W/m2
05:50 14.5 °C 11.3 °C 1022.2 hPa Calm   3.2 km/h 81% 0 mm 0 W/m2
06:00 14.4 °C 11.2 °C 1022.6 hPa NE 3.2 km/h 8 km/h 81% 0 mm 5 W/m2
06:10 14.4 °C 11.2 °C 1022.6 hPa NE 3.2 km/h 6.4 km/h 81% 0 mm 12 W/m2
06:20 14.3 °C 11.1 °C 1022.6 hPa ENE 3.2 km/h 8 km/h 81% 0 mm 20 W/m2
06:30 14.2 °C 11 °C 1022.6 hPa ENE 3.2 km/h 6.4 km/h 81% 0 mm 27 W/m2
06:40 14.1 °C 10.9 °C 1022.6 hPa North 1.6 km/h 4.8 km/h 81% 0 mm 35 W/m2
06:50 14 °C 11.2 °C 1022.9 hPa North 1.6 km/h 3.2 km/h 83% 0 mm 50 W/m2
07:00 14 °C 11.2 °C 1022.9 hPa NE 1.6 km/h 6.4 km/h 83% 0 mm 58 W/m2
07:10 14 °C 11.2 °C 1022.9 hPa SSE 1.6 km/h 6.4 km/h 83% 0 mm 59 W/m2
07:20 14 °C 11.2 °C 1022.9 hPa Calm   3.2 km/h 83% 0 mm 132 W/m2
07:30 14 °C 11.2 °C 1022.9 hPa SE 1.6 km/h 6.4 km/h 83% 0 mm 88 W/m2
07:40 14.2 °C 11.3 °C 1022.9 hPa South 1.6 km/h 6.4 km/h 83% 0 mm 240 W/m2
07:50 14.6 °C 11.5 °C 1022.9 hPa South 3.2 km/h 9.7 km/h 82% 0 mm 296 W/m2
08:00 15.1 °C 11.6 °C 1022.9 hPa SW 3.2 km/h 8 km/h 80% 0 mm 321 W/m2
08:10 15.5 °C 12.1 °C 1022.9 hPa WSW 3.2 km/h 8 km/h 80% 0 mm 357 W/m2
08:20 15.8 °C 12 °C 1022.9 hPa SW 4.8 km/h 14.5 km/h 78% 0 mm 172 W/m2
08:30 16.1 °C 12.1 °C 1022.9 hPa WSW 8 km/h 11.3 km/h 77% 0 mm 209 W/m2
08:40 16.4 °C 12.4 °C 1022.9 hPa WSW 4.8 km/h 12.9 km/h 77% 0 mm 201 W/m2
08:50 16.7 °C 12.3 °C 1022.9 hPa WSW 8 km/h 16.1 km/h 75% 0 mm 220 W/m2
09:00 17 °C 12.1 °C 1022.9 hPa WSW 8 km/h 16.1 km/h 73% 0 mm 262 W/m2
09:10 17.3 °C 12.4 °C 1022.9 hPa SW 8 km/h 12.9 km/h 73% 0 mm 496 W/m2
09:20 17.8 °C 12.3 °C 1022.9 hPa WSW 8 km/h 14.5 km/h 70% 0 mm 359 W/m2
09:30 18.1 °C 12.3 °C 1022.9 hPa SW 9.7 km/h 14.5 km/h 69% 0 mm 318 W/m2
09:40 18.3 °C 12.5 °C 1022.9 hPa WSW 9.7 km/h 19.3 km/h 69% 0 mm 290 W/m2
09:50 18.4 °C 12.4 °C 1022.9 hPa WSW 4.8 km/h 12.9 km/h 68% 0 mm 270 W/m2
10:00 18.6 °C 12.3 °C 1022.9 hPa SW 12.9 km/h 22.5 km/h 67% 0 mm 266 W/m2
10:10 18.7 °C 12.7 °C 1022.9 hPa SW 11.3 km/h 20.9 km/h 68% 0 mm 275 W/m2
10:20 18.8 °C 12.6 °C 1022.9 hPa SW 16.1 km/h 22.5 km/h 67% 0 mm 282 W/m2
10:30 19 °C 12.7 °C 1022.9 hPa SW 11.3 km/h 20.9 km/h 67% 0 mm 299 W/m2
10:40 19.2 °C 12.9 °C 1022.9 hPa WSW 9.7 km/h 20.9 km/h 67% 0 mm 365 W/m2
10:50 19.4 °C 12.9 °C 1022.9 hPa WSW 14.5 km/h 22.5 km/h 66% 0 mm 335 W/m2
11:00 19.9 °C 13.1 °C 1022.9 hPa SW 16.1 km/h 24.1 km/h 65% 0 mm 465 W/m2
11:10 20.6 °C 13.5 °C 1022.9 hPa SW 14.5 km/h 24.1 km/h 64% 0 mm 778 W/m2
11:20 21.1 °C 13.5 °C 1022.6 hPa SW 14.5 km/h 25.7 km/h 62% 0 mm 790 W/m2
11:30 21.4 °C 13.3 °C 1022.6 hPa WSW 12.9 km/h 24.1 km/h 60% 0 mm 207 W/m2
11:40 21.4 °C 13.3 °C 1022.6 hPa WNW 8 km/h 22.5 km/h 60% 0 mm 809 W/m2
11:50 22 °C 13.1 °C 1022.6 hPa WNW 14.5 km/h 25.7 km/h 57% 0 mm 312 W/m2
12:00 22.2 °C 13.6 °C 1022.6 hPa West 12.9 km/h 29 km/h 58% 0 mm 359 W/m2
12:10 22.7 °C 13.2 °C 1022.6 hPa West 14.5 km/h 29 km/h 55% 0 mm 313 W/m2
12:20 23 °C 13.2 °C 1022.6 hPa WNW 9.7 km/h 27.4 km/h 54% 0 mm 828 W/m2
12:30 23.2 °C 13.4 °C 1022.6 hPa West 11.3 km/h 32.2 km/h 54% 0 mm 828 W/m2
12:40 23.2 °C 13.4 °C 1022.6 hPa West 16.1 km/h 32.2 km/h 54% 0 mm 827 W/m2
12:50 23.7 °C 13.6 °C 1022.6 hPa WSW 14.5 km/h 29 km/h 53% 0 mm 825 W/m2
13:00 22.9 °C 12.9 °C 1022.2 hPa WSW 16.1 km/h 32.2 km/h 53% 0 mm 820 W/m2
13:10 22.9 °C 12.8 °C 1022.6 hPa WSW 12.9 km/h 27.4 km/h 53% 0 mm 543 W/m2
13:20 22.9 °C 12.8 °C 1022.6 hPa West 14.5 km/h 32.2 km/h 53% 0 mm 403 W/m2
13:30 23.3 °C 12 °C 1022.6 hPa West 12.9 km/h 27.4 km/h 49% 0 mm 798 W/m2
13:40 23.8 °C 12.7 °C 1022.6 hPa NW 16.1 km/h 32.2 km/h 50% 0 mm 467 W/m2
Knjazevac, Serbia
Compliments of Weather Underground - 2 mb